Time;durP1;ratioP1;P1;durP2;ratioP2;P2;SDS_P1;SDS_P2;PMS_P1;PMS_P2;Temp;Humidity;BMP_temperature;BMP_pressure;BME280_temperature;BME280_humidity;BME280_pressure;Samples;Min_cycle;Max_cycle;Signal;HPM_P1;HPM_P2
2023/10/20 00:00:21;;;;;;;42.57;23.17;;;8.20;99.90;;;;;;5008977;28;20045;-81
2023/10/20 00:02:47;;;;;;;43.17;24.03;;;8.20;99.90;;;;;;4994177;28;20037;-81
2023/10/20 00:05:13;;;;;;;42.67;23.13;;;8.20;99.90;;;;;;4976180;28;20108;-84
2023/10/20 00:07:40;;;;;;;42.67;23.67;;;8.30;99.90;;;;;;5011049;28;20042;-81
2023/10/20 00:10:09;;;;;;;41.50;24.57;;;8.30;99.90;;;;;;4978692;28;20453;-80
2023/10/20 00:12:35;;;;;;;43.17;23.83;;;8.30;99.90;;;;;;5014169;28;20099;-81
2023/10/20 00:15:01;;;;;;;47.60;24.57;;;8.30;99.90;;;;;;5003799;28;20397;-85
2023/10/20 00:17:27;;;;;;;45.80;24.83;;;8.30;99.90;;;;;;5013499;28;20041;-85
2023/10/20 00:19:53;;;;;;;51.70;26.43;;;8.30;99.90;;;;;;4994490;28;20067;-85
2023/10/20 00:22:19;;;;;;;57.73;26.93;;;8.30;99.90;;;;;;4994511;28;20080;-85
2023/10/20 00:24:45;;;;;;;56.90;26.70;;;8.20;99.90;;;;;;5014856;28;20038;-81
2023/10/20 00:27:13;;;;;;;60.37;28.73;;;8.20;99.90;;;;;;4990798;28;20444;-81
2023/10/20 00:29:42;;;;;;;56.97;27.90;;;8.20;99.90;;;;;;4994938;28;20046;-81
2023/10/20 00:32:10;;;;;;;64.10;29.27;;;8.20;99.90;;;;;;4993793;28;20070;-83
2023/10/20 00:34:37;;;;;;;60.70;27.97;;;8.20;99.90;;;;;;4988755;28;20089;-83
2023/10/20 00:37:03;;;;;;;61.90;29.43;;;8.20;99.90;;;;;;5014059;28;20041;-84
2023/10/20 00:39:30;;;;;;;72.50;31.00;;;8.20;99.90;;;;;;5021075;28;20046;-81
2023/10/20 00:41:56;;;;;;;57.97;28.80;;;8.20;99.90;;;;;;4994749;28;20054;-85
2023/10/20 00:44:22;;;;;;;71.30;29.97;;;8.20;99.90;;;;;;5010632;28;20041;-83
2023/10/20 00:46:48;;;;;;;66.77;30.03;;;8.20;99.90;;;;;;4978375;28;20069;-86
2023/10/20 00:49:15;;;;;;;63.63;30.17;;;8.20;99.90;;;;;;4997722;28;20069;-83
2023/10/20 00:51:41;;;;;;;72.47;31.83;;;8.20;99.90;;;;;;4994719;28;20533;-87
2023/10/20 00:54:13;;;;;;;68.20;31.63;;;8.20;99.90;;;;;;4994952;28;20048;-84
2023/10/20 00:56:41;;;;;;;62.60;31.65;;;8.20;99.90;;;;;;5011359;28;20041;-87
2023/10/20 00:59:08;;;;;;;70.97;34.03;;;8.20;99.90;;;;;;4994267;28;20100;-83
2023/10/20 01:01:35;;;;;;;66.63;32.00;;;8.20;99.90;;;;;;4998453;28;20092;-81
2023/10/20 01:04:01;;;;;;;75.60;32.80;;;8.20;99.90;;;;;;4979060;28;20247;-87
2023/10/20 01:06:27;;;;;;;73.10;33.87;;;8.20;99.90;;;;;;5021561;28;20038;-87
2023/10/20 01:08:56;;;;;;;77.03;34.77;;;8.20;99.90;;;;;;4982289;28;20112;-84
2023/10/20 01:11:22;;;;;;;76.90;35.07;;;8.20;99.90;;;;;;5004774;28;20437;-85
2023/10/20 01:13:48;;;;;;;77.10;34.93;;;8.20;99.90;;;;;;4994638;28;20069;-82
2023/10/20 01:16:14;;;;;;;79.67;37.57;;;8.10;99.90;;;;;;4994325;28;20473;-82
2023/10/20 01:18:40;;;;;;;82.60;39.07;;;8.20;99.90;;;;;;4978692;28;20046;-88
2023/10/20 01:21:05;;;;;;;87.37;37.90;;;8.20;99.90;;;;;;5001833;28;20456;-87
2023/10/20 01:23:31;;;;;;;76.40;37.30;;;8.20;99.90;;;;;;5010076;28;20038;-82
2023/10/20 01:25:57;;;;;;;76.87;36.00;;;8.10;99.90;;;;;;4994732;28;20073;-86
2023/10/20 01:28:23;;;;;;;74.93;36.57;;;8.10;99.90;;;;;;4978019;28;20557;-82
2023/10/20 01:30:48;;;;;;;70.50;34.97;;;8.10;99.90;;;;;;4991593;28;20100;-85
2023/10/20 01:33:14;;;;;;;84.70;36.80;;;8.10;99.90;;;;;;5008851;28;20084;-85
2023/10/20 01:35:40;;;;;;;78.40;36.70;;;8.10;99.90;;;;;;5017217;28;20053;-83
2023/10/20 01:38:06;;;;;;;75.13;35.10;;;8.10;99.90;;;;;;4989837;28;20103;-88
2023/10/20 01:40:32;;;;;;;72.30;34.77;;;8.10;99.90;;;;;;4981214;28;20085;-87
2023/10/20 01:42:57;;;;;;;71.30;34.53;;;8.10;99.90;;;;;;5003460;28;20476;-86
2023/10/20 01:45:23;;;;;;;89.03;38.13;;;8.10;99.90;;;;;;4984803;28;20772;-85
2023/10/20 01:47:49;;;;;;;67.97;34.07;;;8.10;99.90;;;;;;4997545;28;20061;-84
2023/10/20 01:50:16;;;;;;;82.07;36.87;;;8.10;99.90;;;;;;5013544;28;20132;-87
2023/10/20 01:52:42;;;;;;;71.23;35.30;;;8.10;99.90;;;;;;5003017;28;20037;-85
2023/10/20 01:55:09;;;;;;;75.70;34.57;;;8.20;99.90;;;;;;5013429;28;20074;-85
2023/10/20 01:57:35;;;;;;;66.77;32.67;;;8.20;99.90;;;;;;4997181;28;20113;-86
2023/10/20 02:00:03;;;;;;;71.47;34.13;;;8.20;99.90;;;;;;4997247;28;20060;-84
2023/10/20 02:02:29;;;;;;;68.73;34.10;;;8.10;99.90;;;;;;4981438;28;20048;-87
2023/10/20 02:04:55;;;;;;;72.17;35.40;;;8.20;99.90;;;;;;4997354;28;20489;-85
2023/10/20 02:07:20;;;;;;;75.47;34.70;;;8.20;99.90;;;;;;4982009;28;20045;-86
2023/10/20 02:09:46;;;;;;;76.17;36.97;;;8.20;99.90;;;;;;4999619;28;20385;-88
2023/10/20 02:12:13;;;;;;;74.57;34.07;;;8.10;99.90;;;;;;4996849;28;20049;-87
2023/10/20 02:14:39;;;;;;;72.07;33.50;;;8.20;99.90;;;;;;4980584;28;20530;-86
2023/10/20 02:17:05;;;;;;;67.03;32.77;;;8.20;99.90;;;;;;4998295;28;20048;-85
2023/10/20 02:19:31;;;;;;;64.87;32.30;;;8.20;99.90;;;;;;4980480;28;20033;-91
2023/10/20 02:21:59;;;;;;;80.83;36.50;;;8.10;99.90;;;;;;5012950;28;20037;-88
2023/10/20 02:24:25;;;;;;;66.50;33.80;;;8.20;99.90;;;;;;4996971;28;20038;-88
2023/10/20 02:26:51;;;;;;;67.47;34.23;;;8.20;99.90;;;;;;5006768;28;20091;-88
2023/10/20 02:29:17;;;;;;;73.43;36.13;;;8.10;99.90;;;;;;5015938;28;20083;-90
2023/10/20 02:31:43;;;;;;;62.17;34.30;;;8.20;99.90;;;;;;5000761;28;20125;-85
2023/10/20 02:34:10;;;;;;;63.20;33.57;;;8.10;99.90;;;;;;4983529;28;20468;-87
2023/10/20 02:36:35;;;;;;;69.20;33.67;;;8.10;99.90;;;;;;5006639;28;20135;-85
2023/10/20 02:39:01;;;;;;;54.63;30.40;;;8.20;99.90;;;;;;5017901;28;20101;-84
2023/10/20 02:41:28;;;;;;;55.17;31.23;;;8.10;99.90;;;;;;4995551;28;20382;-87
2023/10/20 02:43:54;;;;;;;53.77;29.57;;;8.10;99.90;;;;;;4997209;28;20041;-88
2023/10/20 02:46:20;;;;;;;55.00;30.03;;;8.10;99.90;;;;;;4996543;28;20037;-89
2023/10/20 02:48:46;;;;;;;52.43;29.83;;;8.10;99.90;;;;;;5009922;28;20049;-89
2023/10/20 02:51:13;;;;;;;58.10;30.03;;;8.10;99.90;;;;;;5010688;28;20036;-88
2023/10/20 02:53:40;;;;;;;56.00;29.00;;;8.10;99.90;;;;;;4964718;28;20037;-91
2023/10/20 02:56:12;;;;;;;52.23;28.60;;;8.10;99.90;;;;;;4979974;28;20054;-87
2023/10/20 02:58:38;;;;;;;48.23;28.17;;;8.20;99.90;;;;;;4996136;28;20135;-86
2023/10/20 03:01:07;;;;;;;52.17;28.60;;;8.10;99.90;;;;;;4980354;28;20733;-84
2023/10/20 03:03:33;;;;;;;52.23;29.27;;;8.10;99.90;;;;;;4998514;28;20041;-90
2023/10/20 03:06:03;;;;;;;47.80;27.90;;;8.10;99.90;;;;;;4999249;28;20034;-90
2023/10/20 03:08:30;;;;;;;51.57;27.57;;;8.10;99.90;;;;;;5017578;28;20045;-86
2023/10/20 03:10:56;;;;;;;55.10;27.73;;;8.10;99.90;;;;;;4998684;28;20536;-91
2023/10/20 03:13:26;;;;;;;51.20;28.17;;;8.10;99.90;;;;;;4995995;28;20394;-87
2023/10/20 03:15:53;;;;;;;51.67;27.50;;;8.10;99.90;;;;;;5022858;28;20401;-90
2023/10/20 03:18:20;;;;;;;53.30;28.07;;;8.10;99.90;;;;;;5012014;28;20042;-89
2023/10/20 03:20:47;;;;;;;46.80;27.37;;;8.10;99.90;;;;;;5012311;28;20046;-89
2023/10/20 03:23:14;;;;;;;46.67;27.03;;;8.10;99.90;;;;;;5018754;28;20112;-86
2023/10/20 03:25:40;;;;;;;46.17;26.83;;;8.10;99.90;;;;;;5015760;28;20037;-89
2023/10/20 03:28:07;;;;;;;49.60;26.93;;;8.10;99.90;;;;;;4996940;28;20532;-89
2023/10/20 03:30:43;;;;;;;49.47;27.67;;;8.10;99.90;;;;;;4981371;28;20045;-91
2023/10/20 03:33:13;;;;;;;45.23;26.30;;;8.10;99.90;;;;;;4998593;28;20328;-86
2023/10/20 03:35:40;;;;;;;48.60;25.87;;;8.00;99.90;;;;;;5020019;28;20037;-88
2023/10/20 03:38:06;;;;;;;48.20;25.27;;;8.00;99.90;;;;;;5031251;28;20052;-88
2023/10/20 03:40:40;;;;;;;46.87;26.60;;;8.10;99.90;;;;;;4998326;28;20478;-89
2023/10/20 03:43:09;;;;;;;42.47;25.20;;;8.00;99.90;;;;;;4995214;28;20563;-87
2023/10/20 03:45:41;;;;;;;44.90;25.30;;;8.00;99.90;;;;;;4981764;28;20042;-86
2023/10/20 03:48:10;;;;;;;45.78;25.42;;;8.00;99.90;;;;;;5016122;28;20121;-87
2023/10/20 03:50:41;;;;;;;46.17;25.73;;;8.00;99.90;;;;;;5003387;28;20604;-87
2023/10/20 03:53:07;;;;;;;43.55;25.08;;;8.00;99.90;;;;;;4979275;28;20125;-84
2023/10/20 03:55:36;;;;;;;42.97;25.20;;;8.00;99.90;;;;;;5012825;28;20125;-87
2023/10/20 03:58:02;;;;;;;40.33;24.23;;;8.00;99.90;;;;;;4998679;28;20081;-88
2023/10/20 04:00:29;;;;;;;45.47;23.83;;;8.00;99.90;;;;;;4986625;28;20038;-88
2023/10/20 04:02:56;;;;;;;40.50;24.13;;;8.00;99.90;;;;;;4994985;28;20049;-88
2023/10/20 04:05:23;;;;;;;42.97;23.93;;;8.00;99.90;;;;;;5015783;28;20165;-87
2023/10/20 04:07:50;;;;;;;43.10;23.07;;;8.00;99.90;;;;;;5010099;28;20045;-86
2023/10/20 04:10:18;;;;;;;42.30;23.47;;;8.00;99.90;;;;;;4995833;28;20050;-87
2023/10/20 04:12:44;;;;;;;45.60;24.13;;;8.00;99.90;;;;;;5022887;28;20128;-90
2023/10/20 04:15:19;;;;;;;39.60;22.77;;;8.00;99.90;;;;;;5003001;28;20080;-90
2023/10/20 04:17:51;;;;;;;40.63;23.13;;;8.00;99.90;;;;;;5002842;28;20042;-90
2023/10/20 04:20:19;;;;;;;40.30;23.80;;;8.00;99.90;;;;;;4995544;28;20057;-90
2023/10/20 04:22:49;;;;;;;42.83;22.27;;;7.90;99.90;;;;;;4994548;28;20030;-87
2023/10/20 04:25:20;;;;;;;39.30;21.70;;;8.00;99.90;;;;;;5009203;28;20494;-90
2023/10/20 04:28:11;;;;;;;42.65;23.52;;;8.00;99.90;;;;;;4995166;28;20905;-89
2023/10/20 04:41:55;;;;;;;39.63;22.77;;;7.90;99.90;;;;;;5013908;28;20050;-90
2023/10/20 04:54:58;;;;;;;37.05;21.85;;;7.80;99.90;;;;;;5011146;28;20050;-85
2023/10/20 05:05:34;;;;;;;37.50;22.80;;;7.80;99.90;;;;;;4978759;28;20042;-90
2023/10/20 05:10:38;;;;;;;37.10;22.63;;;7.80;99.90;;;;;;5029628;28;20133;-86
2023/10/20 05:13:04;;;;;;;36.33;22.60;;;7.80;99.90;;;;;;5001556;28;20034;-92
2023/10/20 05:15:33;;;;;;;32.50;21.77;;;7.80;99.90;;;;;;4999277;28;20383;-91
2023/10/20 05:18:01;;;;;;;34.63;22.43;;;7.80;99.90;;;;;;5010211;28;20041;-88
2023/10/20 05:20:27;;;;;;;35.73;21.37;;;7.80;99.90;;;;;;5016666;28;20049;-86
2023/10/20 05:22:52;;;;;;;32.37;20.40;;;7.80;99.90;;;;;;5009098;28;20046;-85
2023/10/20 05:25:18;;;;;;;36.67;21.80;;;7.80;99.90;;;;;;5008204;28;20042;-92
2023/10/20 05:27:45;;;;;;;29.77;20.53;;;7.80;99.90;;;;;;5030281;28;20033;-84
2023/10/20 05:30:10;;;;;;;30.90;19.97;;;7.80;99.90;;;;;;4988583;28;21043;-90
2023/10/20 05:32:39;;;;;;;30.17;19.73;;;7.80;99.90;;;;;;4994732;28;20520;-86
2023/10/20 05:35:08;;;;;;;29.47;18.73;;;7.80;99.90;;;;;;5000269;28;20412;-91
2023/10/20 05:37:34;;;;;;;27.97;19.33;;;7.80;99.90;;;;;;5016182;28;20060;-90
2023/10/20 05:40:00;;;;;;;27.10;18.67;;;7.80;99.90;;;;;;4978950;28;20133;-84
2023/10/20 05:42:26;;;;;;;31.00;18.97;;;7.90;99.90;;;;;;4979265;28;20092;-85
2023/10/20 05:45:13;;;;;;;29.67;18.37;;;7.80;99.90;;;;;;5018470;28;20478;-87
2023/10/20 05:47:39;;;;;;;24.17;17.03;;;7.80;99.90;;;;;;4989446;28;20042;-86
2023/10/20 05:50:08;;;;;;;24.67;16.23;;;7.80;99.90;;;;;;5002746;28;20475;-86
2023/10/20 05:52:35;;;;;;;21.17;15.80;;;7.90;99.90;;;;;;4982016;28;20696;-92
2023/10/20 05:55:03;;;;;;;20.53;15.83;;;7.80;99.90;;;;;;4979055;28;20053;-90
2023/10/20 05:57:32;;;;;;;24.07;15.33;;;7.80;99.90;;;;;;4991728;28;20046;-85
2023/10/20 06:00:00;;;;;;;20.50;14.93;;;7.80;99.90;;;;;;4978279;28;20454;-92
2023/10/20 06:02:27;;;;;;;23.17;15.67;;;7.80;99.90;;;;;;4994984;28;20041;-90
2023/10/20 06:04:53;;;;;;;20.80;14.87;;;7.80;99.90;;;;;;4997281;28;20523;-83
2023/10/20 06:07:19;;;;;;;21.53;14.50;;;7.80;99.90;;;;;;5005716;28;20143;-89
2023/10/20 06:09:44;;;;;;;18.00;14.10;;;7.80;99.90;;;;;;4998019;28;20399;-87
2023/10/20 06:12:11;;;;;;;21.70;14.80;;;7.80;99.90;;;;;;4973483;28;20481;-86
2023/10/20 06:14:37;;;;;;;21.90;13.97;;;7.80;99.90;;;;;;5001236;28;20048;-85
2023/10/20 06:17:03;;;;;;;18.63;13.67;;;7.80;99.90;;;;;;4981691;28;20406;-93
2023/10/20 06:19:31;;;;;;;18.47;13.67;;;7.80;99.90;;;;;;5015635;28;20204;-90
2023/10/20 06:21:57;;;;;;;18.27;13.27;;;7.90;99.90;;;;;;5011336;28;20168;-85
2023/10/20 06:24:22;;;;;;;19.90;13.77;;;7.80;99.90;;;;;;4997386;28;20034;-88
2023/10/20 06:26:48;;;;;;;18.30;13.23;;;7.80;99.90;;;;;;4997146;28;20865;-90
2023/10/20 06:31:57;;;;;;;;;;;7.80;99.90;;;;;;5014148;28;20092;-91
2023/10/20 06:34:23;;;;;;;16.53;11.57;;;7.80;99.90;;;;;;4996419;28;19960;-89
2023/10/20 06:37:08;;;;;;;14.80;12.10;;;7.80;99.90;;;;;;4979872;28;20038;-89
2023/10/20 06:39:37;;;;;;;18.00;12.47;;;7.80;99.90;;;;;;5016882;28;20045;-87
2023/10/20 06:42:06;;;;;;;16.37;11.70;;;7.90;99.90;;;;;;5006098;28;20041;-86
2023/10/20 06:44:34;;;;;;;17.70;11.03;;;7.90;99.90;;;;;;5017137;28;20041;-88
2023/10/20 06:47:00;;;;;;;15.17;11.27;;;7.90;99.90;;;;;;5034796;28;20419;-90
2023/10/20 06:49:26;;;;;;;13.73;10.60;;;7.90;99.90;;;;;;5004526;28;20385;-90
2023/10/20 06:51:52;;;;;;;14.70;10.63;;;7.90;99.90;;;;;;4989858;28;20038;-88
2023/10/20 06:54:18;;;;;;;13.73;10.23;;;7.90;99.90;;;;;;4999349;28;20371;-87
2023/10/20 06:56:44;;;;;;;15.43;9.83;;;7.90;99.90;;;;;;4993879;28;20129;-87
2023/10/20 06:59:13;;;;;;;15.07;10.20;;;7.90;99.90;;;;;;5028808;28;20045;-87
2023/10/20 07:01:40;;;;;;;13.10;9.30;;;7.90;99.90;;;;;;5009407;28;20552;-88
2023/10/20 07:04:08;;;;;;;13.70;10.20;;;7.90;99.90;;;;;;4985001;28;20080;-89
2023/10/20 07:06:36;;;;;;;11.60;9.17;;;7.90;99.90;;;;;;5001138;28;20581;-87
2023/10/20 07:09:11;;;;;;;12.63;9.10;;;7.90;99.90;;;;;;5005971;28;20064;-84
2023/10/20 07:11:37;;;;;;;12.57;8.87;;;7.90;99.90;;;;;;5001884;28;20042;-87
2023/10/20 07:14:05;;;;;;;12.93;9.30;;;7.90;99.90;;;;;;4974616;28;20038;-83
2023/10/20 07:16:31;;;;;;;11.87;9.10;;;7.90;99.90;;;;;;5007734;28;20378;-89
2023/10/20 07:18:57;;;;;;;12.00;8.77;;;7.90;99.90;;;;;;4995862;28;20049;-92
2023/10/20 07:21:22;;;;;;;12.37;9.20;;;7.90;99.90;;;;;;5007825;28;20049;-87
2023/10/20 07:23:48;;;;;;;14.73;8.83;;;7.90;99.90;;;;;;4995481;28;20080;-89
2023/10/20 07:26:17;;;;;;;13.77;9.57;;;7.90;99.90;;;;;;4995848;28;20041;-84
2023/10/20 07:28:43;;;;;;;14.67;9.03;;;7.90;99.90;;;;;;5003010;28;20081;-85
2023/10/20 07:31:17;;;;;;;13.13;9.27;;;7.90;99.90;;;;;;5016478;28;20375;-82
2023/10/20 07:33:43;;;;;;;14.17;9.53;;;7.90;99.90;;;;;;5013120;28;20421;-86
2023/10/20 07:36:09;;;;;;;11.53;9.30;;;7.90;99.90;;;;;;5021555;28;20042;-90
2023/10/20 07:38:34;;;;;;;12.50;9.43;;;8.00;99.90;;;;;;4992443;28;20046;-88
2023/10/20 07:41:07;;;;;;;14.60;9.63;;;8.00;99.90;;;;;;4993169;28;20042;-90
2023/10/20 07:43:33;;;;;;;11.83;7.77;;;8.00;99.90;;;;;;4992581;28;20125;-90
2023/10/20 07:45:59;;;;;;;13.43;8.20;;;7.90;99.90;;;;;;5006147;28;20042;-86
2023/10/20 07:48:26;;;;;;;10.53;7.33;;;7.90;99.90;;;;;;4996137;28;20053;-89
2023/10/20 07:50:52;;;;;;;11.93;8.13;;;7.90;99.90;;;;;;4995685;28;20045;-91
2023/10/20 07:53:18;;;;;;;11.73;7.77;;;7.90;99.90;;;;;;4995849;28;20100;-91
2023/10/20 07:55:44;;;;;;;8.23;6.67;;;7.90;99.90;;;;;;4996464;28;20042;-84
2023/10/20 07:58:10;;;;;;;7.60;6.37;;;7.90;99.90;;;;;;4996303;28;20497;-89
2023/10/20 08:00:36;;;;;;;9.97;6.77;;;7.90;99.90;;;;;;5014696;28;20525;-92
2023/10/20 08:03:03;;;;;;;11.20;6.83;;;7.90;99.90;;;;;;5009291;28;20030;-90
2023/10/20 08:05:29;;;;;;;7.83;6.23;;;7.90;99.90;;;;;;4996630;28;20049;-90
2023/10/20 08:08:01;;;;;;;7.70;5.77;;;7.90;99.90;;;;;;5000819;28;20481;-87
2023/10/20 08:10:27;;;;;;;8.17;6.80;;;7.90;99.90;;;;;;4980081;28;20061;-89
2023/10/20 08:12:54;;;;;;;7.70;5.63;;;7.90;99.90;;;;;;4995941;28;20065;-92
2023/10/20 08:15:20;;;;;;;7.17;5.20;;;7.90;99.90;;;;;;5021906;28;20042;-87
2023/10/20 08:17:48;;;;;;;8.00;5.57;;;7.80;99.90;;;;;;5032405;28;20579;-91
2023/10/20 08:20:14;;;;;;;7.03;5.40;;;7.80;99.90;;;;;;4980778;28;20407;-87
2023/10/20 08:22:40;;;;;;;6.20;4.50;;;7.80;99.90;;;;;;4986382;28;20039;-90
2023/10/20 08:25:08;;;;;;;5.87;4.67;;;7.80;99.90;;;;;;4976733;28;20049;-90
2023/10/20 08:27:34;;;;;;;6.10;4.80;;;7.80;99.90;;;;;;5015493;28;20436;-83
2023/10/20 08:30:00;;;;;;;5.53;4.23;;;7.80;99.90;;;;;;5018916;28;20046;-84
2023/10/20 08:32:26;;;;;;;4.73;4.20;;;7.80;99.90;;;;;;5026601;28;20180;-91
2023/10/20 08:34:53;;;;;;;5.30;3.70;;;7.80;99.90;;;;;;5011128;28;20049;-86
2023/10/20 08:37:19;;;;;;;4.50;3.97;;;7.80;99.90;;;;;;4995181;28;20429;-87
2023/10/20 08:39:45;;;;;;;5.37;4.03;;;7.70;99.90;;;;;;5015212;28;20037;-87
2023/10/20 08:42:18;;;;;;;4.90;3.73;;;7.70;99.90;;;;;;5032332;28;20121;-86
2023/10/20 08:44:45;;;;;;;4.67;3.60;;;7.70;99.90;;;;;;5036223;28;20401;-86
2023/10/20 08:47:16;;;;;;;5.10;3.50;;;7.70;99.90;;;;;;5034495;28;20056;-86
2023/10/20 08:49:43;;;;;;;5.60;3.67;;;7.60;99.90;;;;;;5015585;28;20045;-87
2023/10/20 08:52:11;;;;;;;5.30;3.80;;;7.60;99.90;;;;;;5015185;28;20041;-88
2023/10/20 08:54:38;;;;;;;3.87;3.40;;;7.60;99.90;;;;;;5017377;28;20438;-88
2023/10/20 08:57:08;;;;;;;4.17;3.17;;;7.60;99.90;;;;;;5022075;28;20053;-88
2023/10/20 08:59:37;;;;;;;4.27;3.40;;;7.60;99.90;;;;;;5015060;28;20054;-85
2023/10/20 09:02:03;;;;;;;4.70;3.10;;;7.60;99.90;;;;;;4972582;28;20038;-88
2023/10/20 09:04:29;;;;;;;3.83;3.03;;;7.60;99.90;;;;;;4987970;28;20457;-89
2023/10/20 09:07:13;;;;;;;4.43;3.03;;;7.60;99.90;;;;;;5000278;28;20525;-89
2023/10/20 09:09:39;;;;;;;6.50;3.50;;;7.60;99.90;;;;;;4999144;28;20042;-86
2023/10/20 09:12:05;;;;;;;4.33;3.07;;;7.60;99.90;;;;;;5003574;28;20576;-87
2023/10/20 09:14:31;;;;;;;3.77;3.27;;;7.60;99.90;;;;;;4981666;28;20052;-86
2023/10/20 09:16:59;;;;;;;3.33;3.00;;;7.50;99.90;;;;;;5019975;28;20124;-86
2023/10/20 09:19:25;;;;;;;4.00;2.90;;;7.50;99.90;;;;;;5013741;28;20041;-89
2023/10/20 09:21:52;;;;;;;3.47;3.03;;;7.50;99.90;;;;;;5011298;28;20515;-87
2023/10/20 09:24:18;;;;;;;3.93;3.10;;;7.50;99.90;;;;;;4992216;28;20402;-87
2023/10/20 09:26:44;;;;;;;4.23;2.53;;;7.50;99.90;;;;;;5017881;28;20044;-85
2023/10/20 09:29:13;;;;;;;3.57;2.97;;;7.50;99.90;;;;;;5034271;28;20049;-90
2023/10/20 09:31:39;;;;;;;3.43;2.87;;;7.50;99.90;;;;;;5000642;28;20145;-87
2023/10/20 09:34:06;;;;;;;4.30;2.87;;;7.50;99.90;;;;;;4986994;28;20137;-88
2023/10/20 09:36:35;;;;;;;4.27;2.60;;;7.50;99.90;;;;;;5014499;28;20564;-89
2023/10/20 09:39:03;;;;;;;3.40;2.70;;;7.40;99.90;;;;;;4999634;28;20082;-87
2023/10/20 09:41:29;;;;;;;5.60;3.00;;;7.40;99.90;;;;;;4997565;28;20053;-87
2023/10/20 09:44:02;;;;;;;3.83;2.70;;;7.40;99.90;;;;;;5014003;28;20042;-86
2023/10/20 09:46:47;;;;;;;3.00;2.40;;;7.40;99.90;;;;;;5019059;28;20128;-85
2023/10/20 09:49:20;;;;;;;4.47;2.67;;;7.40;99.90;;;;;;5001162;28;20472;-89
2023/10/20 09:51:47;;;;;;;2.90;2.37;;;7.40;99.90;;;;;;5013187;28;20046;-86
2023/10/20 09:54:16;;;;;;;2.33;2.07;;;7.40;99.90;;;;;;5003130;28;20033;-84
2023/10/20 09:56:44;;;;;;;2.40;2.20;;;7.40;99.90;;;;;;5033593;28;20107;-83
2023/10/20 09:59:15;;;;;;;2.97;2.53;;;7.40;99.90;;;;;;5016742;28;20044;-82
2023/10/20 10:01:45;;;;;;;2.53;1.90;;;7.30;99.90;;;;;;5007521;28;20125;-88
2023/10/20 10:04:11;;;;;;;2.47;2.07;;;7.30;99.90;;;;;;5000600;28;20042;-85
2023/10/20 10:06:38;;;;;;;2.10;1.90;;;7.30;99.90;;;;;;5001247;28;20569;-84
2023/10/20 10:09:05;;;;;;;2.30;1.90;;;7.30;99.90;;;;;;4981772;28;20504;-87
2023/10/20 10:11:44;;;;;;;2.10;1.87;;;7.30;99.90;;;;;;5018986;28;20409;-84
2023/10/20 10:14:25;;;;;;;2.07;1.70;;;7.30;99.90;;;;;;5016612;28;20052;-84
2023/10/20 10:16:53;;;;;;;4.73;2.20;;;7.30;99.90;;;;;;5026862;28;20057;-87
2023/10/20 10:19:19;;;;;;;1.63;1.53;;;7.20;99.90;;;;;;5008481;28;20076;-89
2023/10/20 10:21:51;;;;;;;3.30;1.80;;;7.20;99.90;;;;;;4996719;28;20076;-89
2023/10/20 10:24:19;;;;;;;2.05;1.70;;;7.30;99.90;;;;;;4983407;28;20035;-85
2023/10/20 10:26:45;;;;;;;1.90;1.60;;;7.20;99.90;;;;;;4977515;28;20034;-88
2023/10/20 10:29:12;;;;;;;2.57;1.60;;;7.30;99.90;;;;;;5003972;28;20539;-83
2023/10/20 10:31:38;;;;;;;1.80;1.60;;;7.20;99.90;;;;;;4998978;28;20385;-88
2023/10/20 10:34:06;;;;;;;1.93;1.73;;;7.20;99.90;;;;;;5007411;28;20052;-85
2023/10/20 10:36:46;;;;;;;2.90;2.07;;;7.20;99.90;;;;;;4981052;28;20124;-83
2023/10/20 10:39:29;;;;;;;1.93;1.53;;;7.20;99.90;;;;;;5016560;28;20099;-83
2023/10/20 10:42:03;;;;;;;2.70;1.60;;;7.20;99.90;;;;;;5015193;28;20036;-83
2023/10/20 10:44:36;;;;;;;1.60;1.50;;;7.20;99.90;;;;;;5010590;28;20046;-88
2023/10/20 10:47:03;;;;;;;1.87;1.10;;;7.20;99.90;;;;;;4980243;28;20052;-86
2023/10/20 10:49:33;;;;;;;2.20;1.33;;;7.10;99.90;;;;;;5023937;28;20041;-81
2023/10/20 10:52:07;;;;;;;1.60;1.30;;;7.10;99.90;;;;;;4996083;28;20038;-87
2023/10/20 10:54:33;;;;;;;2.10;1.30;;;7.10;99.90;;;;;;4972815;28;20150;-82
2023/10/20 10:57:03;;;;;;;2.00;1.33;;;7.10;99.90;;;;;;4985243;28;20104;-83
2023/10/20 10:59:30;;;;;;;1.70;1.30;;;7.10;99.90;;;;;;4995297;28;20048;-83
2023/10/20 11:01:57;;;;;;;2.53;1.10;;;7.10;99.90;;;;;;5012049;28;20050;-83
2023/10/20 11:04:23;;;;;;;1.13;1.03;;;7.10;99.90;;;;;;4991335;28;20520;-80
2023/10/20 11:06:49;;;;;;;1.40;1.30;;;7.10;99.90;;;;;;5011819;28;20174;-82
2023/10/20 11:09:19;;;;;;;2.20;1.20;;;7.10;99.90;;;;;;4984516;28;20123;-81
2023/10/20 11:11:51;;;;;;;1.57;1.47;;;7.10;99.90;;;;;;4986634;28;20042;-84
2023/10/20 11:14:22;;;;;;;1.13;1.00;;;7.10;99.90;;;;;;5001706;28;20045;-80
2023/10/20 11:16:49;;;;;;;1.43;1.13;;;7.10;99.90;;;;;;5011058;28;20038;-82
2023/10/20 11:19:15;;;;;;;1.33;1.10;;;7.10;99.90;;;;;;5012298;28;20742;-84
2023/10/20 11:21:46;;;;;;;1.83;1.13;;;7.10;99.90;;;;;;4997329;28;20370;-84
2023/10/20 11:24:26;;;;;;;1.90;1.23;;;7.10;99.90;;;;;;4986759;28;20111;-79
2023/10/20 11:27:05;;;;;;;1.50;1.20;;;7.10;99.90;;;;;;4982154;28;20592;-80
2023/10/20 11:29:32;;;;;;;1.40;1.27;;;7.00;99.90;;;;;;4973553;28;20068;-81
2023/10/20 11:32:06;;;;;;;1.40;1.30;;;7.00;99.90;;;;;;5009658;28;20064;-83
2023/10/20 11:34:32;;;;;;;2.20;1.17;;;7.10;99.90;;;;;;4990099;28;20441;-80
2023/10/20 11:36:59;;;;;;;1.77;1.33;;;7.00;99.90;;;;;;5010456;28;20042;-83
2023/10/20 11:39:27;;;;;;;1.53;1.37;;;7.00;99.90;;;;;;5009228;28;20049;-85
2023/10/20 11:41:53;;;;;;;1.50;1.00;;;7.00;99.90;;;;;;4989848;28;20034;-81
2023/10/20 11:44:20;;;;;;;2.00;1.30;;;7.10;99.90;;;;;;4969873;28;20025;-82
2023/10/20 11:46:46;;;;;;;2.97;1.10;;;7.00;99.90;;;;;;5012724;28;20095;-80
2023/10/20 11:49:12;;;;;;;1.83;1.30;;;7.00;99.90;;;;;;5014186;28;20057;-85
2023/10/20 11:51:39;;;;;;;1.50;1.10;;;7.10;99.90;;;;;;4990766;28;20038;-86
2023/10/20 11:54:06;;;;;;;2.13;1.03;;;7.10;99.90;;;;;;4993679;28;20125;-82
2023/10/20 11:56:32;;;;;;;1.43;1.10;;;7.00;99.90;;;;;;4986371;28;20050;-82
2023/10/20 11:58:58;;;;;;;1.97;1.10;;;7.00;99.90;;;;;;4993345;28;20042;-83
2023/10/20 12:01:24;;;;;;;1.70;1.03;;;7.10;99.90;;;;;;5011153;28;20034;-80
2023/10/20 12:03:50;;;;;;;1.93;1.17;;;7.00;99.90;;;;;;4972774;28;20120;-81
2023/10/20 12:06:15;;;;;;;1.20;1.10;;;7.00;99.90;;;;;;4998996;28;20120;-81
2023/10/20 12:08:41;;;;;;;1.00;1.00;;;7.00;99.90;;;;;;4970379;28;20548;-84
2023/10/20 12:11:08;;;;;;;1.40;1.00;;;7.10;99.90;;;;;;4984527;28;20048;-84
2023/10/20 12:13:36;;;;;;;1.33;1.00;;;7.00;99.90;;;;;;4995205;28;20053;-83
2023/10/20 12:16:06;;;;;;;1.23;1.13;;;7.00;99.90;;;;;;4991349;28;20033;-85
2023/10/20 12:18:34;;;;;;;2.67;1.30;;;7.00;99.90;;;;;;4989295;28;20425;-87
2023/10/20 12:20:59;;;;;;;2.57;1.30;;;7.00;99.90;;;;;;4979356;28;20088;-85
2023/10/20 12:23:25;;;;;;;1.10;1.00;;;7.00;99.90;;;;;;4993578;28;20045;-82
2023/10/20 12:25:51;;;;;;;1.23;1.13;;;7.00;99.90;;;;;;4982138;28;20429;-85
2023/10/20 12:28:17;;;;;;;2.23;1.10;;;7.00;99.90;;;;;;4993370;28;20053;-86
2023/10/20 12:30:44;;;;;;;0.93;0.93;;;7.00;99.90;;;;;;5020710;28;20045;-84
2023/10/20 12:33:10;;;;;;;1.43;1.10;;;7.00;99.90;;;;;;5020901;28;20180;-85
2023/10/20 12:35:35;;;;;;;1.10;0.90;;;7.00;99.90;;;;;;4984717;28;20137;-88
2023/10/20 12:38:02;;;;;;;1.73;0.90;;;7.00;99.90;;;;;;5010210;28;20069;-83
2023/10/20 12:40:28;;;;;;;0.93;0.93;;;7.00;99.90;;;;;;5005032;28;20073;-84
2023/10/20 12:42:54;;;;;;;0.90;0.90;;;7.00;99.90;;;;;;4998417;28;20089;-83
2023/10/20 12:45:19;;;;;;;1.80;1.10;;;7.00;99.90;;;;;;4997276;28;20039;-86
2023/10/20 12:47:45;;;;;;;1.27;1.17;;;7.00;99.90;;;;;;4998838;28;20034;-88
2023/10/20 12:50:11;;;;;;;1.07;0.97;;;7.00;99.90;;;;;;4994729;28;20513;-81
2023/10/20 12:52:36;;;;;;;2.10;1.10;;;6.90;99.90;;;;;;4986530;28;20119;-87
2023/10/20 12:55:05;;;;;;;1.13;1.03;;;7.00;99.90;;;;;;4994974;28;20417;-83
2023/10/20 12:57:31;;;;;;;1.20;1.10;;;6.90;99.90;;;;;;4990345;28;20050;-84
2023/10/20 12:59:57;;;;;;;1.33;0.90;;;6.90;99.90;;;;;;4999128;28;20038;-84
2023/10/20 13:02:23;;;;;;;1.20;1.10;;;7.00;99.90;;;;;;5025937;28;20044;-87
2023/10/20 13:04:49;;;;;;;1.73;1.50;;;7.00;99.90;;;;;;5012225;28;20045;-87
2023/10/20 13:07:14;;;;;;;1.20;1.10;;;6.90;99.90;;;;;;4990683;28;20038;-83
2023/10/20 13:09:40;;;;;;;1.57;1.30;;;6.90;99.90;;;;;;4945511;28;20050;-84
2023/10/20 13:12:06;;;;;;;1.13;1.03;;;6.90;99.90;;;;;;5023176;28;20041;-89
2023/10/20 13:14:32;;;;;;;1.80;1.40;;;6.90;99.90;;;;;;4992812;28;20449;-90
2023/10/20 13:16:58;;;;;;;2.03;1.63;;;6.90;99.90;;;;;;4989658;28;20038;-85
2023/10/20 13:19:24;;;;;;;2.13;1.40;;;7.00;99.90;;;;;;4998487;28;20050;-85
2023/10/20 13:21:50;;;;;;;1.40;1.10;;;6.90;99.90;;;;;;4991849;28;20038;-83